Western King — CY7367 — position and weather

sailwx.info

Track history (hours):
 
Tides and Currents Weather Stations Pressure Air Temp Water Temp Dewpoint Dewpoint Depression Visibility Wind Speed Wind Dir Waves Ship Positions

Western King

Last reported at 2014-Sep-25 21:20 UTC. Time now 2014-Oct-01 16:28 UTC.
Position N 50°02' W 125°15'.

Length 23 m; draft 3.8 m.

Type: Fishing. MMSI: 316003779.

Date/timePositionNaut miles runAvg speedWind from/ knotsBaromVisibWave heightAir tempDewpointWater temp
2014-Sep-25 21:20N 50°02' W 125°15'0 0.0
2014-Sep-25 20:33N 50°02' W 125°15'0 0.0
2014-Sep-25 19:32N 50°02' W 125°15'0 0.0
2014-Sep-25 04:25N 50°02' W 125°15'1110.9
2014-Sep-25 03:27N 49°55' W 125°03'9 9.7
2014-Sep-25 02:32N 49°50' W 124°52'1010.2
2014-Sep-25 01:33N 49°43' W 124°40'1010.4
2014-Sep-25 00:33N 49°37' W 124°27'1010.2
2014-Sep-24 23:33N 49°31' W 124°14'1010.5
2014-Sep-24 22:33N 49°25' W 124°01'1010.1
2014-Sep-24 21:33N 49°20' W 123°48'10 9.9
2014-Sep-24 20:33N 49°14' W 123°35'1010.3
2014-Sep-24 19:33N 49°08' W 123°22'7 7.3
2014-Sep-24 18:33N 49°07' W 123°11'0 0.0
2014-Sep-24 17:33N 49°07' W 123°11'0 0.0
2014-Sep-24 16:33N 49°07' W 123°11'0 0.0
2014-Sep-24 15:33N 49°07' W 123°11'0 0.0
2014-Sep-24 14:33N 49°07' W 123°11'0 0.0
2014-Sep-24 13:33N 49°07' W 123°11'0 0.0
2014-Sep-24 12:33N 49°07' W 123°11'0 0.0
2014-Sep-24 11:33N 49°07' W 123°11'0 0.0
2014-Sep-24 10:33N 49°07' W 123°11'0 0.0
2014-Sep-24 09:33N 49°07' W 123°11'0 0.0
2014-Sep-24 08:33N 49°07' W 123°11'0 0.0
2014-Sep-24 07:33N 49°07' W 123°11'0 0.0
2014-Sep-24 06:33N 49°07' W 123°11'0 0.0
2014-Sep-24 05:33N 49°07' W 123°11'0 0.0
2014-Sep-24 04:33N 49°07' W 123°11'0 0.0
2014-Sep-24 03:33N 49°07' W 123°11'0 0.0
2014-Sep-24 02:33N 49°07' W 123°11'0 0.0
2014-Sep-24 01:33N 49°07' W 123°11'0 0.0
2014-Sep-24 00:33N 49°07' W 123°11'0 0.0
2014-Sep-23 23:33N 49°07' W 123°11'0 0.0
2014-Sep-23 22:33N 49°07' W 123°11'0 0.0
2014-Sep-23 21:33N 49°07' W 123°11'0 0.0
2014-Sep-23 20:33N 49°07' W 123°11'0 0.1
2014-Sep-23 19:33N 49°07' W 123°11'0 0.0
2014-Sep-23 18:33N 49°07' W 123°11'0 0.0
2014-Sep-23 17:33N 49°07' W 123°11'0 0.0
2014-Sep-23 16:33N 49°07' W 123°11'0 0.0
2014-Sep-23 15:33N 49°07' W 123°11'0 0.0
2014-Sep-23 14:33N 49°07' W 123°11'0 0.0
2014-Sep-23 13:33N 49°07' W 123°11'0 0.0
2014-Sep-23 12:33N 49°07' W 123°11'0 0.0
2014-Sep-23 11:33N 49°07' W 123°11'0 0.0
2014-Sep-23 10:33N 49°07' W 123°11'0 0.0
2014-Sep-23 09:33N 49°07' W 123°11'0 0.0
2014-Sep-23 08:33N 49°07' W 123°11'0 0.0
2014-Sep-23 07:33N 49°07' W 123°11'0 0.0
2014-Sep-23 06:33N 49°07' W 123°11'0 0.0
2014-Sep-23 05:33N 49°07' W 123°11'0 0.0
2014-Sep-23 04:33N 49°07' W 123°11'0 0.0
2014-Sep-23 03:33N 49°07' W 123°11'0 0.0
2014-Sep-23 02:33N 49°07' W 123°11'0 0.0
2014-Sep-23 01:33N 49°07' W 123°11'0 0.0
2014-Sep-23 00:33N 49°07' W 123°11'0 0.0
2014-Sep-22 23:33N 49°07' W 123°11'0 0.0
2014-Sep-22 22:33N 49°07' W 123°11'0 0.0
2014-Sep-22 21:33N 49°07' W 123°11'5 5.4
2014-Sep-22 20:33N 49°06' W 123°19'6 5.6
2014-Sep-22 19:33N 49°01' W 123°13'2 2.3
2014-Sep-22 18:33N 49°01' W 123°10'6 6.4
2014-Sep-22 17:34N 49°04' W 123°19'6 6.2
2014-Sep-22 16:33N 49°07' W 123°11'0 0.0
2014-Sep-22 15:33N 49°07' W 123°11'0 0.0
2014-Sep-22 14:33N 49°07' W 123°11'0 0.0
2014-Sep-22 13:34N 49°07' W 123°11'0 0.0
2014-Sep-22 12:33N 49°07' W 123°11'0 0.0
2014-Sep-22 11:33N 49°07' W 123°11'0 0.0
2014-Sep-22 10:33N 49°07' W 123°11'0 0.0
2014-Sep-22 09:33N 49°07' W 123°11'0 0.0
2014-Sep-22 08:33N 49°07' W 123°11'0 0.0
2014-Sep-22 07:34N 49°07' W 123°11'0 0.0
2014-Sep-22 06:34N 49°07' W 123°11'0 0.0
2014-Sep-22 05:33N 49°07' W 123°11'0 0.0
2014-Sep-22 04:34N 49°07' W 123°11'0 0.0
2014-Sep-22 03:34N 49°07' W 123°11'0 0.0
2014-Sep-22 02:33N 49°07' W 123°11'0 0.0
2014-Sep-22 01:33N 49°07' W 123°11'0 0.0
2014-Sep-22 00:33N 49°07' W 123°11'0 0.0
2014-Sep-21 23:34N 49°07' W 123°11'0 0.0
2014-Sep-21 22:33N 49°07' W 123°11'0 0.0
2014-Sep-21 21:33N 49°07' W 123°11'0 0.0
2014-Sep-21 20:33N 49°07' W 123°11'0 0.0
2014-Sep-21 19:33N 49°07' W 123°11'0 0.0
2014-Sep-21 18:33N 49°07' W 123°11'0 0.0
2014-Sep-21 17:34N 49°07' W 123°11'0 0.0
2014-Sep-21 16:33N 49°07' W 123°11'0 0.0
2014-Sep-21 15:33N 49°07' W 123°11'0 0.0
2014-Sep-21 14:33N 49°07' W 123°11'0 0.0
2014-Sep-21 13:33N 49°07' W 123°11'0 0.0
2014-Sep-21 12:33N 49°07' W 123°11'0 0.0
2014-Sep-21 11:33N 49°07' W 123°11'0 0.0
2014-Sep-21 10:33N 49°07' W 123°11'0 0.0
2014-Sep-21 09:33N 49°07' W 123°11'0 0.0
2014-Sep-21 08:33N 49°07' W 123°11'0 0.0
2014-Sep-21 07:33N 49°07' W 123°11'0 0.0
2014-Sep-21 06:33N 49°07' W 123°11'0 0.0
2014-Sep-21 05:33N 49°07' W 123°11'0 0.0
2014-Sep-21 04:33N 49°07' W 123°11'0 0.0
2014-Sep-21 03:33N 49°07' W 123°11'0 0.0
2014-Sep-21 02:33N 49°07' W 123°11'0 0.0
2014-Sep-21 01:33N 49°07' W 123°11'0 0.0
2014-Sep-21 00:33N 49°07' W 123°11'0 0.0
2014-Sep-20 23:33N 49°07' W 123°11'0 0.0
2014-Sep-20 22:33N 49°07' W 123°11'0 0.0
2014-Sep-20 21:33N 49°07' W 123°11'0 0.0
2014-Sep-20 20:33N 49°07' W 123°11'3 3.0
2014-Sep-20 19:33N 49°07' W 123°16'6 6.0
2014-Sep-20 18:33N 49°13' W 123°18'6 6.0
2014-Sep-20 17:33N 49°12' W 123°09'2 2.0
2014-Sep-20 16:33N 49°12' W 123°06'0 0.0
2014-Sep-20 15:33N 49°12' W 123°06'0 0.0
2014-Sep-20 14:33N 49°12' W 123°06'0 0.0
2014-Sep-20 13:33N 49°12' W 123°06'0 0.0
2014-Sep-20 12:33N 49°12' W 123°06'0 0.0
2014-Sep-20 11:34N 49°12' W 123°06'0 0.0
2014-Sep-20 10:34N 49°12' W 123°06'0 0.0
2014-Sep-20 09:34N 49°12' W 123°06'0 0.0
2014-Sep-20 08:33N 49°12' W 123°06'0 0.0
2014-Sep-20 07:33N 49°12' W 123°06'0 0.0
2014-Sep-20 06:34N 49°12' W 123°06'0 0.0
2014-Sep-20 05:34N 49°12' W 123°06'4 4.2
2014-Sep-20 04:34N 49°13' W 123°12'4 4.4
2014-Sep-20 03:33N 49°11' W 123°18'5 4.6
2014-Sep-20 02:34N 49°08' W 123°13'1 1.4
2014-Sep-20 01:34N 49°07' W 123°11'0 0.0
2014-Sep-20 00:34N 49°07' W 123°11'2 1.5
2014-Sep-19 23:33N 49°08' W 123°13'5 4.7
2014-Sep-19 22:34N 49°06' W 123°20'0 0.2
2014-Sep-19 21:33N 49°06' W 123°20'1 0.9
2014-Sep-19 20:33N 49°05' W 123°19'1 0.9
2014-Sep-19 19:34N 49°04' W 123°19'0 0.3
2014-Sep-19 18:33N 49°04' W 123°20'1 0.9
2014-Sep-19 17:34N 49°05' W 123°20'1 1.2
2014-Sep-19 16:33N 49°06' W 123°21'2 1.7
2014-Sep-19 15:33N 49°07' W 123°20'5 4.7
2014-Sep-19 14:34N 49°08' W 123°12'1 0.7
2014-Sep-19 13:33N 49°07' W 123°11'0 0.0
2014-Sep-19 12:33N 49°07' W 123°11'0 0.0
2014-Sep-19 11:33N 49°07' W 123°11'0 0.0
2014-Sep-19 10:33N 49°07' W 123°11'0 0.0
2014-Sep-19 09:33N 49°07' W 123°11'0 0.0
2014-Sep-19 08:33N 49°07' W 123°11'0 0.0
2014-Sep-19 07:33N 49°07' W 123°11'0 0.0
2014-Sep-19 06:33N 49°07' W 123°11'0 0.0
2014-Sep-19 05:33N 49°07' W 123°11'0 0.0
2014-Sep-19 04:33N 49°07' W 123°11'0 0.0
2014-Sep-19 03:33N 49°07' W 123°11'0 0.0
2014-Sep-19 02:33N 49°07' W 123°11'0 0.0
2014-Sep-19 01:33N 49°07' W 123°11'0 0.0
2014-Sep-19 00:33N 49°07' W 123°11'0 0.0
2014-Sep-18 23:33N 49°07' W 123°11'0 0.0
2014-Sep-18 22:33N 49°07' W 123°11'0 0.0
2014-Sep-18 21:33N 49°07' W 123°11'0 0.0
2014-Sep-18 20:33N 49°07' W 123°11'1 0.8
2014-Sep-18 19:33N 49°07' W 123°10'0 0.1
2014-Sep-18 18:33N 49°07' W 123°10'0 0.0
2014-Sep-18 17:33N 49°07' W 123°10'0 0.0
2014-Sep-18 16:33N 49°07' W 123°10'0 0.0
2014-Sep-18 15:33N 49°07' W 123°10'0 0.0
2014-Sep-18 14:33N 49°07' W 123°10'0 0.0
2014-Sep-18 13:33N 49°07' W 123°10'0 0.0
2014-Sep-18 12:33N 49°07' W 123°10'0 0.0
2014-Sep-18 11:33N 49°07' W 123°10'0 0.0
2014-Sep-18 10:33N 49°07' W 123°10'0 0.0
2014-Sep-18 09:33N 49°07' W 123°10'0 0.0
2014-Sep-18 08:33N 49°07' W 123°10'0 0.0
2014-Sep-18 07:33N 49°07' W 123°10'0 0.0
2014-Sep-18 06:33N 49°07' W 123°10'0 0.0
2014-Sep-18 05:33N 49°07' W 123°10'0 0.0
2014-Sep-18 04:33N 49°07' W 123°10'0 0.0
2014-Sep-18 03:33N 49°07' W 123°10'0 0.0
2014-Sep-18 02:33N 49°07' W 123°10'0 0.0
2014-Sep-18 01:33N 49°07' W 123°10'0 0.0
2014-Sep-18 00:33N 49°07' W 123°10'4 4.2
2014-Sep-17 23:33N 49°07' W 123°16'7 7.3
2014-Sep-17 22:33N 49°14' W 123°18'7 6.7
2014-Sep-17 21:34N 49°12' W 123°08'1 1.4
2014-Sep-17 20:33N 49°12' W 123°06'0 0.0
2014-Sep-17 19:33N 49°12' W 123°06'0 0.0
2014-Sep-17 18:33N 49°12' W 123°06'1 0.8
2014-Sep-17 17:33N 49°12' W 123°07'7 7.2
2014-Sep-17 16:33N 49°14' W 123°18'7 7.1
2014-Sep-17 15:33N 49°07' W 123°16'3 3.4
2014-Sep-17 14:33N 49°07' W 123°11'0 0.0
2014-Sep-17 13:33N 49°07' W 123°11'0 0.0
2014-Sep-17 12:33N 49°07' W 123°11'0 0.0
2014-Sep-17 11:33N 49°07' W 123°11'0 0.0
2014-Sep-17 10:33N 49°07' W 123°11'0 0.0
2014-Sep-17 09:33N 49°07' W 123°11'0 0.0
2014-Sep-17 08:33N 49°07' W 123°11'0 0.0
2014-Sep-17 07:33N 49°07' W 123°11'0 0.0
2014-Sep-17 06:33N 49°07' W 123°11'0 0.0
2014-Sep-17 05:33N 49°07' W 123°11'0 0.0
2014-Sep-17 04:33N 49°07' W 123°11'0 0.0
2014-Sep-17 03:33N 49°07' W 123°11'0 0.0
2014-Sep-17 02:33N 49°07' W 123°11'0 0.0
2014-Sep-17 01:33N 49°07' W 123°11'0 0.0
2014-Sep-17 00:33N 49°07' W 123°11'0 0.0
2014-Sep-16 23:33N 49°07' W 123°11'6 5.6
2014-Sep-16 22:33N 49°07' W 123°19'1 1.3
2014-Sep-16 21:33N 49°07' W 123°21'1 0.8
2014-Sep-16 20:33N 49°06' W 123°21'1 0.6
2014-Sep-16 19:33N 49°06' W 123°20'0 0.3
2014-Sep-16 18:33N 49°06' W 123°21'0 0.5
2014-Sep-16 17:33N 49°06' W 123°20'2 1.8
2014-Sep-16 16:33N 49°07' W 123°19'0 0.3
2014-Sep-16 15:33N 49°07' W 123°19'1 0.7
2014-Sep-16 14:34N 49°08' W 123°19'1 0.9
2014-Sep-16 13:33N 49°07' W 123°20'6 5.9
2014-Sep-16 12:33N 49°07' W 123°11'0 0.0
2014-Sep-16 11:33N 49°07' W 123°11'0 0.0
2014-Sep-16 10:33N 49°07' W 123°11'0 0.0
2014-Sep-16 09:33N 49°07' W 123°11'0 0.0
2014-Sep-16 08:33N 49°07' W 123°11'0 0.0
2014-Sep-16 07:33N 49°07' W 123°11'0 0.0
2014-Sep-16 06:33N 49°07' W 123°11'0 0.0
2014-Sep-16 05:33N 49°07' W 123°11'0 0.0
2014-Sep-16 04:33N 49°07' W 123°11'0 0.0
2014-Sep-16 03:33N 49°07' W 123°11'0 0.0
2014-Sep-16 02:33N 49°07' W 123°11'0 0.0
2014-Sep-16 01:33N 49°07' W 123°11'0 0.0
2014-Sep-16 00:33N 49°07' W 123°11'0 0.0
2014-Sep-15 23:33N 49°07' W 123°11'0 0.0
2014-Sep-15 22:33N 49°07' W 123°11'0 0.0
2014-Sep-15 21:33N 49°07' W 123°11'  
Track history (hours):
 
Tides and Currents Weather Stations Pressure Air Temp Water Temp Dewpoint Dewpoint Depression Visibility Wind Speed Wind Dir Waves Ship Positions

Western King

Last reported at 2014-Sep-25 21:20 UTC. Time now 2014-Oct-01 16:28 UTC.
Position N 50°02' W 125°15'.

Length 23 m; draft 3.8 m.

Type: Fishing. MMSI: 316003779.

Date/timePositionNaut miles runAvg speedWind from/ knotsBaromVisibWave heightAir tempDewpointWater temp
2014-Sep-25 21:20N 50°02' W 125°15'0 0.0
2014-Sep-25 20:33N 50°02' W 125°15'0 0.0
2014-Sep-25 19:32N 50°02' W 125°15'0 0.0
2014-Sep-25 04:25N 50°02' W 125°15'1110.9
2014-Sep-25 03:27N 49°55' W 125°03'9 9.7
2014-Sep-25 02:32N 49°50' W 124°52'1010.2
2014-Sep-25 01:33N 49°43' W 124°40'1010.4
2014-Sep-25 00:33N 49°37' W 124°27'1010.2
2014-Sep-24 23:33N 49°31' W 124°14'1010.5
2014-Sep-24 22:33N 49°25' W 124°01'1010.1
2014-Sep-24 21:33N 49°20' W 123°48'10 9.9
2014-Sep-24 20:33N 49°14' W 123°35'1010.3
2014-Sep-24 19:33N 49°08' W 123°22'7 7.3
2014-Sep-24 18:33N 49°07' W 123°11'0 0.0
2014-Sep-24 17:33N 49°07' W 123°11'0 0.0
2014-Sep-24 16:33N 49°07' W 123°11'0 0.0
2014-Sep-24 15:33N 49°07' W 123°11'0 0.0
2014-Sep-24 14:33N 49°07' W 123°11'0 0.0
2014-Sep-24 13:33N 49°07' W 123°11'0 0.0
2014-Sep-24 12:33N 49°07' W 123°11'0 0.0
2014-Sep-24 11:33N 49°07' W 123°11'0 0.0
2014-Sep-24 10:33N 49°07' W 123°11'0 0.0
2014-Sep-24 09:33N 49°07' W 123°11'0 0.0
2014-Sep-24 08:33N 49°07' W 123°11'0 0.0
2014-Sep-24 07:33N 49°07' W 123°11'0 0.0
2014-Sep-24 06:33N 49°07' W 123°11'0 0.0
2014-Sep-24 05:33N 49°07' W 123°11'0 0.0
2014-Sep-24 04:33N 49°07' W 123°11'0 0.0
2014-Sep-24 03:33N 49°07' W 123°11'0 0.0
2014-Sep-24 02:33N 49°07' W 123°11'0 0.0
2014-Sep-24 01:33N 49°07' W 123°11'0 0.0
2014-Sep-24 00:33N 49°07' W 123°11'0 0.0
2014-Sep-23 23:33N 49°07' W 123°11'0 0.0
2014-Sep-23 22:33N 49°07' W 123°11'0 0.0
2014-Sep-23 21:33N 49°07' W 123°11'0 0.0
2014-Sep-23 20:33N 49°07' W 123°11'0 0.1
2014-Sep-23 19:33N 49°07' W 123°11'0 0.0
2014-Sep-23 18:33N 49°07' W 123°11'0 0.0
2014-Sep-23 17:33N 49°07' W 123°11'0 0.0
2014-Sep-23 16:33N 49°07' W 123°11'0 0.0
2014-Sep-23 15:33N 49°07' W 123°11'0 0.0
2014-Sep-23 14:33N 49°07' W 123°11'0 0.0
2014-Sep-23 13:33N 49°07' W 123°11'0 0.0
2014-Sep-23 12:33N 49°07' W 123°11'0 0.0
2014-Sep-23 11:33N 49°07' W 123°11'0 0.0
2014-Sep-23 10:33N 49°07' W 123°11'0 0.0
2014-Sep-23 09:33N 49°07' W 123°11'0 0.0
2014-Sep-23 08:33N 49°07' W 123°11'0 0.0
2014-Sep-23 07:33N 49°07' W 123°11'0 0.0
2014-Sep-23 06:33N 49°07' W 123°11'0 0.0
2014-Sep-23 05:33N 49°07' W 123°11'0 0.0
2014-Sep-23 04:33N 49°07' W 123°11'0 0.0
2014-Sep-23 03:33N 49°07' W 123°11'0 0.0
2014-Sep-23 02:33N 49°07' W 123°11'0 0.0
2014-Sep-23 01:33N 49°07' W 123°11'0 0.0
2014-Sep-23 00:33N 49°07' W 123°11'0 0.0
2014-Sep-22 23:33N 49°07' W 123°11'0 0.0
2014-Sep-22 22:33N 49°07' W 123°11'0 0.0
2014-Sep-22 21:33N 49°07' W 123°11'5 5.4
2014-Sep-22 20:33N 49°06' W 123°19'6 5.6
2014-Sep-22 19:33N 49°01' W 123°13'2 2.3
2014-Sep-22 18:33N 49°01' W 123°10'6 6.4
2014-Sep-22 17:34N 49°04' W 123°19'6 6.2
2014-Sep-22 16:33N 49°07' W 123°11'0 0.0
2014-Sep-22 15:33N 49°07' W 123°11'0 0.0
2014-Sep-22 14:33N 49°07' W 123°11'0 0.0
2014-Sep-22 13:34N 49°07' W 123°11'0 0.0
2014-Sep-22 12:33N 49°07' W 123°11'0 0.0
2014-Sep-22 11:33N 49°07' W 123°11'0 0.0
2014-Sep-22 10:33N 49°07' W 123°11'0 0.0
2014-Sep-22 09:33N 49°07' W 123°11'0 0.0
2014-Sep-22 08:33N 49°07' W 123°11'0 0.0
2014-Sep-22 07:34N 49°07' W 123°11'0 0.0
2014-Sep-22 06:34N 49°07' W 123°11'0 0.0
2014-Sep-22 05:33N 49°07' W 123°11'0 0.0
2014-Sep-22 04:34N 49°07' W 123°11'0 0.0
2014-Sep-22 03:34N 49°07' W 123°11'0 0.0
2014-Sep-22 02:33N 49°07' W 123°11'0 0.0
2014-Sep-22 01:33N 49°07' W 123°11'0 0.0
2014-Sep-22 00:33N 49°07' W 123°11'0 0.0
2014-Sep-21 23:34N 49°07' W 123°11'0 0.0
2014-Sep-21 22:33N 49°07' W 123°11'0 0.0
2014-Sep-21 21:33N 49°07' W 123°11'0 0.0
2014-Sep-21 20:33N 49°07' W 123°11'0 0.0
2014-Sep-21 19:33N 49°07' W 123°11'0 0.0
2014-Sep-21 18:33N 49°07' W 123°11'0 0.0
2014-Sep-21 17:34N 49°07' W 123°11'0 0.0
2014-Sep-21 16:33N 49°07' W 123°11'0 0.0
2014-Sep-21 15:33N 49°07' W 123°11'0 0.0
2014-Sep-21 14:33N 49°07' W 123°11'0 0.0
2014-Sep-21 13:33N 49°07' W 123°11'0 0.0
2014-Sep-21 12:33N 49°07' W 123°11'0 0.0
2014-Sep-21 11:33N 49°07' W 123°11'0 0.0
2014-Sep-21 10:33N 49°07' W 123°11'0 0.0
2014-Sep-21 09:33N 49°07' W 123°11'0 0.0
2014-Sep-21 08:33N 49°07' W 123°11'0 0.0
2014-Sep-21 07:33N 49°07' W 123°11'0 0.0
2014-Sep-21 06:33N 49°07' W 123°11'0 0.0
2014-Sep-21 05:33N 49°07' W 123°11'0 0.0
2014-Sep-21 04:33N 49°07' W 123°11'0 0.0
2014-Sep-21 03:33N 49°07' W 123°11'0 0.0
2014-Sep-21 02:33N 49°07' W 123°11'0 0.0
2014-Sep-21 01:33N 49°07' W 123°11'0 0.0
2014-Sep-21 00:33N 49°07' W 123°11'0 0.0
2014-Sep-20 23:33N 49°07' W 123°11'0 0.0
2014-Sep-20 22:33N 49°07' W 123°11'0 0.0
2014-Sep-20 21:33N 49°07' W 123°11'0 0.0
2014-Sep-20 20:33N 49°07' W 123°11'3 3.0
2014-Sep-20 19:33N 49°07' W 123°16'6 6.0
2014-Sep-20 18:33N 49°13' W 123°18'6 6.0
2014-Sep-20 17:33N 49°12' W 123°09'2 2.0
2014-Sep-20 16:33N 49°12' W 123°06'0 0.0
2014-Sep-20 15:33N 49°12' W 123°06'0 0.0
2014-Sep-20 14:33N 49°12' W 123°06'0 0.0
2014-Sep-20 13:33N 49°12' W 123°06'0 0.0
2014-Sep-20 12:33N 49°12' W 123°06'0 0.0
2014-Sep-20 11:34N 49°12' W 123°06'0 0.0
2014-Sep-20 10:34N 49°12' W 123°06'0 0.0
2014-Sep-20 09:34N 49°12' W 123°06'0 0.0
2014-Sep-20 08:33N 49°12' W 123°06'0 0.0
2014-Sep-20 07:33N 49°12' W 123°06'0 0.0
2014-Sep-20 06:34N 49°12' W 123°06'0 0.0
2014-Sep-20 05:34N 49°12' W 123°06'4 4.2
2014-Sep-20 04:34N 49°13' W 123°12'4 4.4
2014-Sep-20 03:33N 49°11' W 123°18'5 4.6
2014-Sep-20 02:34N 49°08' W 123°13'1 1.4
2014-Sep-20 01:34N 49°07' W 123°11'0 0.0
2014-Sep-20 00:34N 49°07' W 123°11'2 1.5
2014-Sep-19 23:33N 49°08' W 123°13'5 4.7
2014-Sep-19 22:34N 49°06' W 123°20'0 0.2
2014-Sep-19 21:33N 49°06' W 123°20'1 0.9
2014-Sep-19 20:33N 49°05' W 123°19'1 0.9
2014-Sep-19 19:34N 49°04' W 123°19'0 0.3
2014-Sep-19 18:33N 49°04' W 123°20'1 0.9
2014-Sep-19 17:34N 49°05' W 123°20'1 1.2
2014-Sep-19 16:33N 49°06' W 123°21'2 1.7
2014-Sep-19 15:33N 49°07' W 123°20'5 4.7
2014-Sep-19 14:34N 49°08' W 123°12'1 0.7
2014-Sep-19 13:33N 49°07' W 123°11'0 0.0
2014-Sep-19 12:33N 49°07' W 123°11'0 0.0
2014-Sep-19 11:33N 49°07' W 123°11'0 0.0
2014-Sep-19 10:33N 49°07' W 123°11'0 0.0
2014-Sep-19 09:33N 49°07' W 123°11'0 0.0
2014-Sep-19 08:33N 49°07' W 123°11'0 0.0
2014-Sep-19 07:33N 49°07' W 123°11'0 0.0
2014-Sep-19 06:33N 49°07' W 123°11'0 0.0
2014-Sep-19 05:33N 49°07' W 123°11'0 0.0
2014-Sep-19 04:33N 49°07' W 123°11'0 0.0
2014-Sep-19 03:33N 49°07' W 123°11'0 0.0
2014-Sep-19 02:33N 49°07' W 123°11'0 0.0
2014-Sep-19 01:33N 49°07' W 123°11'0 0.0
2014-Sep-19 00:33N 49°07' W 123°11'0 0.0
2014-Sep-18 23:33N 49°07' W 123°11'0 0.0
2014-Sep-18 22:33N 49°07' W 123°11'0 0.0
2014-Sep-18 21:33N 49°07' W 123°11'0 0.0
2014-Sep-18 20:33N 49°07' W 123°11'1 0.8
2014-Sep-18 19:33N 49°07' W 123°10'0 0.1
2014-Sep-18 18:33N 49°07' W 123°10'0 0.0
2014-Sep-18 17:33N 49°07' W 123°10'0 0.0
2014-Sep-18 16:33N 49°07' W 123°10'0 0.0
2014-Sep-18 15:33N 49°07' W 123°10'0 0.0
2014-Sep-18 14:33N 49°07' W 123°10'0 0.0
2014-Sep-18 13:33N 49°07' W 123°10'0 0.0
2014-Sep-18 12:33N 49°07' W 123°10'0 0.0
2014-Sep-18 11:33N 49°07' W 123°10'0 0.0
2014-Sep-18 10:33N 49°07' W 123°10'0 0.0
2014-Sep-18 09:33N 49°07' W 123°10'0 0.0
2014-Sep-18 08:33N 49°07' W 123°10'0 0.0
2014-Sep-18 07:33N 49°07' W 123°10'0 0.0
2014-Sep-18 06:33N 49°07' W 123°10'0 0.0
2014-Sep-18 05:33N 49°07' W 123°10'0 0.0
2014-Sep-18 04:33N 49°07' W 123°10'0 0.0
2014-Sep-18 03:33N 49°07' W 123°10'0 0.0
2014-Sep-18 02:33N 49°07' W 123°10'0 0.0
2014-Sep-18 01:33N 49°07' W 123°10'0 0.0
2014-Sep-18 00:33N 49°07' W 123°10'4 4.2
2014-Sep-17 23:33N 49°07' W 123°16'7 7.3
2014-Sep-17 22:33N 49°14' W 123°18'7 6.7
2014-Sep-17 21:34N 49°12' W 123°08'1 1.4
2014-Sep-17 20:33N 49°12' W 123°06'0 0.0
2014-Sep-17 19:33N 49°12' W 123°06'0 0.0
2014-Sep-17 18:33N 49°12' W 123°06'1 0.8
2014-Sep-17 17:33N 49°12' W 123°07'7 7.2
2014-Sep-17 16:33N 49°14' W 123°18'7 7.1
2014-Sep-17 15:33N 49°07' W 123°16'3 3.4
2014-Sep-17 14:33N 49°07' W 123°11'0 0.0
2014-Sep-17 13:33N 49°07' W 123°11'0 0.0
2014-Sep-17 12:33N 49°07' W 123°11'0 0.0
2014-Sep-17 11:33N 49°07' W 123°11'0 0.0
2014-Sep-17 10:33N 49°07' W 123°11'0 0.0
2014-Sep-17 09:33N 49°07' W 123°11'0 0.0
2014-Sep-17 08:33N 49°07' W 123°11'0 0.0
2014-Sep-17 07:33N 49°07' W 123°11'0 0.0
2014-Sep-17 06:33N 49°07' W 123°11'0 0.0
2014-Sep-17 05:33N 49°07' W 123°11'0 0.0
2014-Sep-17 04:33N 49°07' W 123°11'0 0.0
2014-Sep-17 03:33N 49°07' W 123°11'0 0.0
2014-Sep-17 02:33N 49°07' W 123°11'0 0.0
2014-Sep-17 01:33N 49°07' W 123°11'0 0.0
2014-Sep-17 00:33N 49°07' W 123°11'0 0.0
2014-Sep-16 23:33N 49°07' W 123°11'6 5.6
2014-Sep-16 22:33N 49°07' W 123°19'1 1.3
2014-Sep-16 21:33N 49°07' W 123°21'1 0.8
2014-Sep-16 20:33N 49°06' W 123°21'1 0.6
2014-Sep-16 19:33N 49°06' W 123°20'0 0.3
2014-Sep-16 18:33N 49°06' W 123°21'0 0.5
2014-Sep-16 17:33N 49°06' W 123°20'2 1.8
2014-Sep-16 16:33N 49°07' W 123°19'0 0.3
2014-Sep-16 15:33N 49°07' W 123°19'1 0.7
2014-Sep-16 14:34N 49°08' W 123°19'1 0.9
2014-Sep-16 13:33N 49°07' W 123°20'6 5.9
2014-Sep-16 12:33N 49°07' W 123°11'0 0.0
2014-Sep-16 11:33N 49°07' W 123°11'0 0.0
2014-Sep-16 10:33N 49°07' W 123°11'0 0.0
2014-Sep-16 09:33N 49°07' W 123°11'0 0.0
2014-Sep-16 08:33N 49°07' W 123°11'0 0.0
2014-Sep-16 07:33N 49°07' W 123°11'0 0.0
2014-Sep-16 06:33N 49°07' W 123°11'0 0.0
2014-Sep-16 05:33N 49°07' W 123°11'0 0.0
2014-Sep-16 04:33N 49°07' W 123°11'0 0.0
2014-Sep-16 03:33N 49°07' W 123°11'0 0.0
2014-Sep-16 02:33N 49°07' W 123°11'0 0.0
2014-Sep-16 01:33N 49°07' W 123°11'0 0.0
2014-Sep-16 00:33N 49°07' W 123°11'0 0.0
2014-Sep-15 23:33N 49°07' W 123°11'0 0.0
2014-Sep-15 22:33N 49°07' W 123°11'0 0.0
2014-Sep-15 21:33N 49°07' W 123°11'  

Dump ship's entire track history